YPJT

Perth Jandakot Airport

Airport
ICAO code
YPJT
IATA Code
JAD
Summary
ICAO Region
APAC
ICAO Territory
Location

, Western Australia

Serving
Perth
Elevation
99 ft
Coordinates
32° 5' 51" S , 115° 52' 52" E
Metar
YPJT 142330Z AUTO 10007KT 9999 // NCD 17/12 Q1024 RF00.0/000.0

Airport map

Aerial View

SKYbrary Partners:

Safety knowledge contributed by: